Time;durP1;ratioP1;P1;durP2;ratioP2;P2;SDS_P1;SDS_P2;PMS_P1;PMS_P2;Temp;Humidity;BMP_temperature;BMP_pressure;BME280_temperature;BME280_humidity;BME280_pressure;Samples;Min_cycle;Max_cycle;Signal;HPM_P1;HPM_P2
2020/12/18 00:00:52;;;;;;;10.27;9.17;;;;;;;;;;5094761;28;20226;-83
2020/12/18 00:03:19;;;;;;;12.77;9.20;;;;;;;;;;5094873;28;20240;-84
2020/12/18 00:05:45;;;;;;;28.53;9.53;;;;;;;;;;5093745;28;20598;-84
2020/12/18 00:08:11;;;;;;;10.17;9.03;;;;;;;;;;5094751;28;20267;-84
2020/12/18 00:10:38;;;;;;;10.27;9.17;;;;;;;;;;5094987;28;20520;-84
2020/12/18 00:13:04;;;;;;;12.17;9.83;;;;;;;;;;5095550;28;20618;-86
2020/12/18 00:15:31;;;;;;;19.10;9.97;;;;;;;;;;5094454;28;20249;-84
2020/12/18 00:17:57;;;;;;;24.70;11.30;;;;;;;;;;5095479;28;20216;-85
2020/12/18 00:20:23;;;;;;;37.03;11.50;;;;;;;;;;5095229;28;20238;-84
2020/12/18 00:22:49;;;;;;;47.13;10.77;;;;;;;;;;5094069;28;20224;-83
2020/12/18 00:25:15;;;;;;;46.53;11.67;;;;;;;;;;5095247;28;20213;-85
2020/12/18 00:27:42;;;;;;;68.80;11.30;;;;;;;;;;5095245;28;20221;-81
2020/12/18 00:30:09;;;;;;;68.70;11.30;;;;;;;;;;5095321;28;20221;-83
2020/12/18 00:32:37;;;;;;;27.20;11.00;;;;;;;;;;5094824;28;20249;-83
2020/12/18 00:35:04;;;;;;;33.57;11.83;;;;;;;;;;5093895;28;20237;-83
2020/12/18 00:37:30;;;;;;;18.40;10.73;;;;;;;;;;5095306;28;20229;-82
2020/12/18 00:39:56;;;;;;;12.47;9.67;;;;;;;;;;5095095;28;20214;-83
2020/12/18 00:42:22;;;;;;;16.40;11.50;;;;;;;;;;5095199;28;20235;-83
2020/12/18 00:44:48;;;;;;;21.93;11.10;;;;;;;;;;5095138;28;20606;-83
2020/12/18 00:47:14;;;;;;;22.53;10.90;;;;;;;;;;5095096;28;20240;-82
2020/12/18 00:49:41;;;;;;;19.13;11.03;;;;;;;;;;5094687;28;20229;-83
2020/12/18 00:52:08;;;;;;;14.80;10.23;;;;;;;;;;5095152;28;20225;-83
2020/12/18 00:54:34;;;;;;;18.80;10.70;;;;;;;;;;5094322;28;20268;-83
2020/12/18 00:57:00;;;;;;;16.33;11.40;;;;;;;;;;5095165;28;20210;-83
2020/12/18 00:59:26;;;;;;;43.37;11.80;;;;;;;;;;5094624;28;20245;-82
2020/12/18 01:01:56;;;;;;;12.10;10.10;;;;;;;;;;5095096;28;20278;-81
2020/12/18 01:04:22;;;;;;;19.00;10.83;;;;;;;;;;5094789;28;20230;-81
2020/12/18 01:06:49;;;;;;;134.83;17.53;;;;;;;;;;5095129;28;20233;-82
2020/12/18 01:09:15;;;;;;;48.73;13.37;;;;;;;;;;5094444;28;20229;-83
2020/12/18 01:11:41;;;;;;;19.73;10.83;;;;;;;;;;5095079;28;20827;-82
2020/12/18 01:14:07;;;;;;;11.37;9.90;;;;;;;;;;5094348;28;20234;-83
2020/12/18 01:16:33;;;;;;;33.93;12.50;;;;;;;;;;5095140;28;20229;-82
2020/12/18 01:18:59;;;;;;;54.53;17.30;;;;;;;;;;5094358;28;20240;-82
2020/12/18 01:21:25;;;;;;;93.77;30.03;;;;;;;;;;5094505;28;20225;-82
2020/12/18 01:23:52;;;;;;;141.77;19.23;;;;;;;;;;5094312;28;20260;-81
2020/12/18 01:26:18;;;;;;;99.90;18.67;;;;;;;;;;5096065;28;20233;-83
2020/12/18 01:28:44;;;;;;;96.00;14.13;;;;;;;;;;5098130;28;20240;-83
2020/12/18 01:31:11;;;;;;;240.27;16.67;;;;;;;;;;5098650;28;20255;-82
2020/12/18 01:33:37;;;;;;;87.47;13.57;;;;;;;;;;5097792;28;20256;-81
2020/12/18 01:36:03;;;;;;;87.00;13.33;;;;;;;;;;5098513;28;20242;-83
2020/12/18 01:38:29;;;;;;;120.93;15.13;;;;;;;;;;5098519;28;20222;-84
2020/12/18 01:40:56;;;;;;;63.20;13.37;;;;;;;;;;5098387;28;20233;-83
2020/12/18 01:43:22;;;;;;;104.13;15.47;;;;;;;;;;5098203;28;20205;-82
2020/12/18 01:45:48;;;;;;;112.57;14.37;;;;;;;;;;5098306;28;20221;-82
2020/12/18 01:48:15;;;;;;;31.87;11.33;;;;;;;;;;5097467;28;20232;-83
2020/12/18 01:50:41;;;;;;;19.87;10.00;;;;;;;;;;5097475;28;20234;-82
2020/12/18 01:53:07;;;;;;;53.77;11.57;;;;;;;;;;5097804;28;20236;-81
2020/12/18 01:55:34;;;;;;;75.20;14.23;;;;;;;;;;5097792;28;20245;-81
2020/12/18 01:58:01;;;;;;;70.97;18.07;;;;;;;;;;5097893;28;20234;-83
2020/12/18 02:00:27;;;;;;;74.93;17.90;;;;;;;;;;5097895;28;20236;-83
2020/12/18 02:02:53;;;;;;;58.73;16.40;;;;;;;;;;5097456;28;20206;-81
2020/12/18 02:05:19;;;;;;;39.77;14.77;;;;;;;;;;5097855;28;20209;-82
2020/12/18 02:07:55;;;;;;;59.27;14.20;;;;;;;;;;5097674;28;20510;-81
2020/12/18 02:10:22;;;;;;;51.47;15.00;;;;;;;;;;5097384;28;20232;-83
2020/12/18 02:12:48;;;;;;;49.13;11.93;;;;;;;;;;5096996;28;20238;-82
2020/12/18 02:15:15;;;;;;;29.07;10.90;;;;;;;;;;5097579;28;20302;-82
2020/12/18 02:17:41;;;;;;;29.80;10.97;;;;;;;;;;5096546;28;20202;-82
2020/12/18 02:20:07;;;;;;;12.03;9.70;;;;;;;;;;5097764;28;20229;-82
2020/12/18 02:22:33;;;;;;;10.57;9.57;;;;;;;;;;5096178;28;20490;-82
2020/12/18 02:25:01;;;;;;;10.73;9.27;;;;;;;;;;5095995;28;20193;-81
2020/12/18 02:27:28;;;;;;;10.60;9.50;;;;;;;;;;5097475;28;20646;-83
2020/12/18 02:29:55;;;;;;;10.80;9.23;;;;;;;;;;5097595;28;20606;-81
2020/12/18 02:32:21;;;;;;;9.20;8.33;;;;;;;;;;5097119;28;20233;-81
2020/12/18 02:34:47;;;;;;;9.77;8.77;;;;;;;;;;5095714;28;20237;-83
2020/12/18 02:37:13;;;;;;;13.90;8.70;;;;;;;;;;5097112;28;20510;-82
2020/12/18 02:39:39;;;;;;;9.70;8.70;;;;;;;;;;5096550;28;20233;-82
2020/12/18 02:42:05;;;;;;;11.23;8.73;;;;;;;;;;5096982;28;20232;-82
2020/12/18 02:44:32;;;;;;;12.27;8.57;;;;;;;;;;5095506;28;20255;-82
2020/12/18 02:46:58;;;;;;;10.13;8.10;;;;;;;;;;5097069;28;20633;-82
2020/12/18 02:49:24;;;;;;;10.77;8.80;;;;;;;;;;5096941;28;20236;-83
2020/12/18 02:51:51;;;;;;;13.43;9.63;;;;;;;;;;5097066;28;20428;-83
2020/12/18 02:54:17;;;;;;;17.00;10.17;;;;;;;;;;5096513;28;20228;-83
2020/12/18 02:56:43;;;;;;;35.23;13.87;;;;;;;;;;5096615;28;20252;-83
2020/12/18 02:59:09;;;;;;;59.37;15.73;;;;;;;;;;5096461;28;20225;-83
2020/12/18 03:01:36;;;;;;;25.23;10.90;;;;;;;;;;5096890;28;20225;-82
2020/12/18 03:04:02;;;;;;;27.53;10.57;;;;;;;;;;5096646;28;20229;-83
2020/12/18 03:06:28;;;;;;;18.40;10.90;;;;;;;;;;5096460;28;20240;-83
2020/12/18 03:08:54;;;;;;;13.43;9.70;;;;;;;;;;5096697;28;20552;-82
2020/12/18 03:11:20;;;;;;;19.57;10.60;;;;;;;;;;5096620;28;20633;-83
2020/12/18 03:13:47;;;;;;;19.00;10.77;;;;;;;;;;5096610;28;20237;-83
2020/12/18 03:16:13;;;;;;;14.93;9.23;;;;;;;;;;5096161;28;20253;-82
2020/12/18 03:18:40;;;;;;;12.43;8.63;;;;;;;;;;5096049;28;20234;-83
2020/12/18 03:21:06;;;;;;;9.80;8.53;;;;;;;;;;5096384;28;20229;-82
2020/12/18 03:23:32;;;;;;;8.37;7.57;;;;;;;;;;5096392;28;20236;-82
2020/12/18 03:25:58;;;;;;;8.67;7.77;;;;;;;;;;5096402;28;20599;-83
2020/12/18 03:28:24;;;;;;;9.17;7.67;;;;;;;;;;5096389;28;20644;-83
2020/12/18 03:30:51;;;;;;;10.80;8.23;;;;;;;;;;5096408;28;20233;-83
2020/12/18 03:33:17;;;;;;;9.17;8.03;;;;;;;;;;5095114;28;20559;-81
2020/12/18 03:35:44;;;;;;;10.93;8.10;;;;;;;;;;5096225;28;20552;-83
2020/12/18 03:38:10;;;;;;;12.37;8.10;;;;;;;;;;5095917;28;20645;-83
2020/12/18 03:40:36;;;;;;;13.73;8.33;;;;;;;;;;5095899;28;20241;-82
2020/12/18 03:43:02;;;;;;;15.17;9.70;;;;;;;;;;5095867;28;20231;-83
2020/12/18 03:45:28;;;;;;;14.03;9.33;;;;;;;;;;5096088;28;20244;-83
2020/12/18 03:47:55;;;;;;;9.03;7.97;;;;;;;;;;5095495;28;20532;-82
2020/12/18 03:50:21;;;;;;;11.23;8.73;;;;;;;;;;5095227;28;20229;-82
2020/12/18 03:52:48;;;;;;;10.90;7.87;;;;;;;;;;5095687;28;20232;-83
2020/12/18 03:55:14;;;;;;;9.53;7.60;;;;;;;;;;5095907;28;20249;-82
2020/12/18 03:57:40;;;;;;;10.67;7.97;;;;;;;;;;5095688;28;20618;-83
2020/12/18 04:00:07;;;;;;;7.73;6.93;;;;;;;;;;5095838;28;20233;-81
2020/12/18 04:02:33;;;;;;;9.13;7.47;;;;;;;;;;5095639;28;20230;-83
2020/12/18 04:04:59;;;;;;;8.00;7.20;;;;;;;;;;5095846;28;20228;-83
2020/12/18 04:07:25;;;;;;;8.53;6.93;;;;;;;;;;5095430;28;20236;-83
2020/12/18 04:09:52;;;;;;;7.87;7.07;;;;;;;;;;5095716;28;20232;-81
2020/12/18 04:12:18;;;;;;;8.60;7.37;;;;;;;;;;5095425;28;20232;-82
2020/12/18 04:14:44;;;;;;;8.00;7.20;;;;;;;;;;5095442;28;20226;-83
2020/12/18 04:17:10;;;;;;;7.73;6.87;;;;;;;;;;5095096;28;20311;-82
2020/12/18 04:19:36;;;;;;;9.30;7.30;;;;;;;;;;5095427;28;20240;-82
2020/12/18 04:22:03;;;;;;;7.10;6.37;;;;;;;;;;5095095;28;20237;-83
2020/12/18 04:24:29;;;;;;;9.60;6.73;;;;;;;;;;5095288;28;20234;-83
2020/12/18 04:26:56;;;;;;;7.53;6.80;;;;;;;;;;5095053;28;20263;-82
2020/12/18 04:29:22;;;;;;;7.77;7.07;;;;;;;;;;5095182;28;20209;-81
2020/12/18 04:31:48;;;;;;;7.93;6.73;;;;;;;;;;5095208;28;20248;-82
2020/12/18 04:34:14;;;;;;;7.57;6.80;;;;;;;;;;5094771;28;20245;-80
2020/12/18 04:36:40;;;;;;;7.97;6.77;;;;;;;;;;5094790;28;20649;-80
2020/12/18 04:39:06;;;;;;;9.37;6.93;;;;;;;;;;5095206;28;20229;-84
2020/12/18 04:41:33;;;;;;;7.87;7.07;;;;;;;;;;5094654;28;20237;-81
2020/12/18 04:44:00;;;;;;;7.90;7.10;;;;;;;;;;5094994;28;20642;-82
2020/12/18 04:46:28;;;;;;;7.87;7.07;;;;;;;;;;5094693;28;20232;-81
2020/12/18 04:48:54;;;;;;;7.93;7.10;;;;;;;;;;5094506;28;20232;-80
2020/12/18 04:51:23;;;;;;;9.53;8.23;;;;;;;;;;5095090;28;20225;-82
2020/12/18 04:53:49;;;;;;;8.80;7.90;;;;;;;;;;5094835;28;20229;-80
2020/12/18 04:56:19;;;;;;;8.13;7.27;;;;;;;;;;5094975;28;20804;-82
2020/12/18 04:58:48;;;;;;;8.00;7.17;;;;;;;;;;5094947;28;20221;-81
2020/12/18 05:01:17;;;;;;;8.33;6.53;;;;;;;;;;5096106;28;20226;-81
2020/12/18 05:03:44;;;;;;;8.47;6.87;;;;;;;;;;5099062;28;20229;-79
2020/12/18 05:06:10;;;;;;;7.33;6.37;;;;;;;;;;5098942;28;20516;-84
2020/12/18 05:08:36;;;;;;;7.40;6.73;;;;;;;;;;5098212;28;20229;-82
2020/12/18 05:11:14;;;;;;;7.53;6.73;;;;;;;;;;5098959;28;20205;-83
2020/12/18 05:13:41;;;;;;;9.23;7.00;;;;;;;;;;5098424;28;20225;-82
2020/12/18 05:16:07;;;;;;;7.67;6.80;;;;;;;;;;5098602;28;20249;-83
2020/12/18 05:18:34;;;;;;;7.70;6.40;;;;;;;;;;5098668;28;20224;-82
2020/12/18 05:21:00;;;;;;;8.37;6.70;;;;;;;;;;5098720;28;20617;-80
2020/12/18 05:23:26;;;;;;;7.97;7.00;;;;;;;;;;5098756;28;20280;-81
2020/12/18 05:25:53;;;;;;;7.90;6.53;;;;;;;;;;5098749;28;20302;-83
2020/12/18 05:28:20;;;;;;;7.67;6.70;;;;;;;;;;5098744;28;20237;-82
2020/12/18 05:30:46;;;;;;;8.17;6.67;;;;;;;;;;5098564;28;20230;-83
2020/12/18 05:33:13;;;;;;;7.57;6.37;;;;;;;;;;5097681;28;20249;-80
2020/12/18 05:35:40;;;;;;;8.47;6.90;;;;;;;;;;5098067;28;20253;-82
2020/12/18 05:38:07;;;;;;;6.93;6.33;;;;;;;;;;5098349;28;20279;-81
2020/12/18 05:40:33;;;;;;;7.40;6.43;;;;;;;;;;5098472;28;20613;-81
2020/12/18 05:43:06;;;;;;;6.73;6.13;;;;;;;;;;5098346;28;20198;-82
2020/12/18 05:45:32;;;;;;;7.03;6.33;;;;;;;;;;5098009;28;20226;-84
2020/12/18 05:47:59;;;;;;;6.53;5.90;;;;;;;;;;5098211;28;20206;-84
2020/12/18 05:50:29;;;;;;;6.20;5.70;;;;;;;;;;5098229;28;20684;-81
2020/12/18 05:52:59;;;;;;;7.13;6.43;;;;;;;;;;5097788;28;20252;-82
2020/12/18 05:55:26;;;;;;;8.17;6.50;;;;;;;;;;5098019;28;20273;-84
2020/12/18 05:57:52;;;;;;;7.37;6.67;;;;;;;;;;5097872;28;20197;-82
2020/12/18 06:00:20;;;;;;;9.50;7.47;;;;;;;;;;5098349;28;20202;-82
2020/12/18 06:02:48;;;;;;;9.87;7.77;;;;;;;;;;5098717;28;20193;-82
2020/12/18 06:05:15;;;;;;;7.37;6.53;;;;;;;;;;5097930;28;20617;-82
2020/12/18 06:07:41;;;;;;;8.63;6.77;;;;;;;;;;5097578;28;20232;-83
2020/12/18 06:10:08;;;;;;;7.97;7.00;;;;;;;;;;5097963;28;20538;-82
2020/12/18 06:12:34;;;;;;;8.30;7.50;;;;;;;;;;5096895;28;20320;-82
2020/12/18 06:15:01;;;;;;;9.70;8.47;;;;;;;;;;5098053;28;20252;-82
2020/12/18 06:17:28;;;;;;;9.17;8.17;;;;;;;;;;5103478;28;20222;-82
2020/12/18 06:19:56;;;;;;;9.90;8.27;;;;;;;;;;5097710;28;20685;-81
2020/12/18 06:22:22;;;;;;;8.07;7.23;;;;;;;;;;5097478;28;20759;-82
2020/12/18 06:24:48;;;;;;;7.90;6.53;;;;;;;;;;5097567;28;20205;-82
2020/12/18 06:27:16;;;;;;;7.00;6.30;;;;;;;;;;5097316;28;20553;-82
2020/12/18 06:29:43;;;;;;;7.47;6.67;;;;;;;;;;5097500;28;20241;-82
2020/12/18 06:32:23;;;;;;;6.57;5.97;;;;;;;;;;5096760;28;20233;-81
2020/12/18 06:34:49;;;;;;;10.27;8.37;;;;;;;;;;5097293;28;20212;-82
2020/12/18 06:37:31;;;;;;;9.57;7.80;;;;;;;;;;5096388;28;20245;-82
2020/12/18 06:39:57;;;;;;;7.90;7.20;;;;;;;;;;5097218;28;20241;-82
2020/12/18 06:42:24;;;;;;;8.10;7.30;;;;;;;;;;5095806;28;20315;-82
2020/12/18 06:44:51;;;;;;;8.70;7.90;;;;;;;;;;5097168;28;20233;-85
2020/12/18 06:47:19;;;;;;;10.30;8.70;;;;;;;;;;5096979;28;20602;-84
2020/12/18 06:49:58;;;;;;;10.13;9.10;;;;;;;;;;5096993;28;20285;-81
2020/12/18 06:52:36;;;;;;;9.53;7.83;;;;;;;;;;5096947;28;20240;-83
2020/12/18 06:55:03;;;;;;;8.27;7.47;;;;;;;;;;5096706;28;20237;-83
2020/12/18 06:57:30;;;;;;;8.43;7.20;;;;;;;;;;5096807;28;20268;-83
2020/12/18 07:00:10;;;;;;;8.77;7.87;;;;;;;;;;5096898;28;20524;-83
2020/12/18 07:02:37;;;;;;;9.53;7.80;;;;;;;;;;5094182;28;20197;-83
2020/12/18 07:05:03;;;;;;;13.20;8.70;;;;;;;;;;5096684;28;20265;-83
2020/12/18 07:07:31;;;;;;;8.93;8.10;;;;;;;;;;5096426;28;20202;-82
2020/12/18 07:09:57;;;;;;;12.20;7.97;;;;;;;;;;5096739;28;20225;-83
2020/12/18 07:12:23;;;;;;;9.13;8.20;;;;;;;;;;5096566;28;20233;-82
2020/12/18 07:14:50;;;;;;;9.00;8.10;;;;;;;;;;5096624;28;20244;-82
2020/12/18 07:17:16;;;;;;;8.10;7.30;;;;;;;;;;5095976;28;20252;-82
2020/12/18 07:19:43;;;;;;;7.67;6.97;;;;;;;;;;5096319;28;20241;-82
2020/12/18 07:22:09;;;;;;;9.40;6.93;;;;;;;;;;5095255;28;20273;-83
2020/12/18 07:24:35;;;;;;;10.07;7.80;;;;;;;;;;5095895;28;20634;-80
2020/12/18 07:27:02;;;;;;;6.87;6.23;;;;;;;;;;5096112;28;20229;-82
2020/12/18 07:29:28;;;;;;;7.80;7.10;;;;;;;;;;5096522;28;20201;-83
2020/12/18 07:31:56;;;;;;;7.33;6.63;;;;;;;;;;5095632;28;20232;-82
2020/12/18 07:34:22;;;;;;;9.07;6.50;;;;;;;;;;5095839;28;20221;-83
2020/12/18 07:36:48;;;;;;;8.67;7.17;;;;;;;;;;5095585;28;20249;-82
2020/12/18 07:39:14;;;;;;;7.60;6.90;;;;;;;;;;5096247;28;20221;-82
2020/12/18 07:41:40;;;;;;;7.47;6.27;;;;;;;;;;5095942;28;20244;-82
2020/12/18 07:44:07;;;;;;;6.90;6.20;;;;;;;;;;5096099;28;20236;-83
2020/12/18 07:46:35;;;;;;;6.77;6.17;;;;;;;;;;5094011;28;20198;-83
2020/12/18 07:49:08;;;;;;;7.30;6.53;;;;;;;;;;5096043;28;20214;-83
2020/12/18 07:51:35;;;;;;;6.50;6.00;;;;;;;;;;5095688;28;20244;-82
2020/12/18 07:54:01;;;;;;;7.90;6.30;;;;;;;;;;5095942;28;20202;-82
2020/12/18 07:56:27;;;;;;;8.57;6.83;;;;;;;;;;5093759;28;20290;-83
2020/12/18 07:58:56;;;;;;;9.40;7.30;;;;;;;;;;5095912;28;20536;-83
2020/12/18 08:01:23;;;;;;;13.77;8.47;;;;;;;;;;5095669;28;20234;-82
2020/12/18 08:03:50;;;;;;;11.37;8.40;;;;;;;;;;5094479;28;20193;-81
2020/12/18 08:06:19;;;;;;;14.20;9.23;;;;;;;;;;5094886;28;20232;-83
2020/12/18 08:08:48;;;;;;;18.13;9.73;;;;;;;;;;5095560;28;20229;-83
2020/12/18 08:11:15;;;;;;;11.40;8.70;;;;;;;;;;5095257;28;20234;-82
2020/12/18 08:13:41;;;;;;;11.67;7.77;;;;;;;;;;5095724;28;20233;-81
2020/12/18 08:16:08;;;;;;;27.03;10.33;;;;;;;;;;5094727;28;20241;-81
2020/12/18 08:18:35;;;;;;;23.77;8.63;;;;;;;;;;5094280;28;20213;-83
2020/12/18 08:21:01;;;;;;;50.77;9.07;;;;;;;;;;5095057;28;20240;-82
2020/12/18 08:23:29;;;;;;;21.00;8.27;;;;;;;;;;5095499;28;20226;-82
2020/12/18 08:25:56;;;;;;;13.17;8.40;;;;;;;;;;5095318;28;20245;-83
2020/12/18 08:28:24;;;;;;;18.47;7.53;;;;;;;;;;5095264;28;20668;-82
2020/12/18 08:30:50;;;;;;;11.27;7.40;;;;;;;;;;5093959;28;20239;-82
2020/12/18 08:33:17;;;;;;;21.77;8.43;;;;;;;;;;5094970;28;20261;-82
2020/12/18 08:35:46;;;;;;;15.33;8.37;;;;;;;;;;5094149;28;20245;-82
2020/12/18 08:38:12;;;;;;;35.13;8.43;;;;;;;;;;5095221;28;20202;-82
2020/12/18 08:40:40;;;;;;;21.03;8.40;;;;;;;;;;5093821;28;20198;-82
2020/12/18 08:43:06;;;;;;;62.07;11.53;;;;;;;;;;5093988;28;20246;-83
2020/12/18 08:45:41;;;;;;;48.10;9.47;;;;;;;;;;5095129;28;20221;-83
2020/12/18 08:48:07;;;;;;;27.50;8.23;;;;;;;;;;5095074;28;20209;-82
2020/12/18 08:50:33;;;;;;;25.10;8.50;;;;;;;;;;5095038;28;20229;-81
2020/12/18 08:53:07;;;;;;;62.30;9.00;;;;;;;;;;5095267;28;20531;-81
2020/12/18 08:55:33;;;;;;;17.47;8.53;;;;;;;;;;5094416;28;20237;-83
2020/12/18 08:58:05;;;;;;;76.00;9.27;;;;;;;;;;5094937;28;20357;-80
2020/12/18 09:00:31;;;;;;;26.90;8.70;;;;;;;;;;5094998;28;20323;-81
2020/12/18 09:02:58;;;;;;;89.73;11.67;;;;;;;;;;5095180;28;20197;-82
2020/12/18 09:05:25;;;;;;;23.93;8.23;;;;;;;;;;5094850;28;20210;-83
2020/12/18 09:07:52;;;;;;;72.23;10.97;;;;;;;;;;5094927;28;20229;-82
2020/12/18 09:10:32;;;;;;;81.70;9.40;;;;;;;;;;5094427;28;20224;-82
2020/12/18 09:13:07;;;;;;;35.73;9.17;;;;;;;;;;5094819;28;20474;-82
2020/12/18 09:15:34;;;;;;;29.37;8.80;;;;;;;;;;5094338;28;20261;-83
2020/12/18 09:18:00;;;;;;;38.77;9.50;;;;;;;;;;5094769;28;20541;-80
2020/12/18 09:20:27;;;;;;;17.70;9.40;;;;;;;;;;5094573;28;20237;-80
2020/12/18 09:22:57;;;;;;;69.47;11.43;;;;;;;;;;5094701;28;20283;-82
2020/12/18 09:25:23;;;;;;;43.10;10.97;;;;;;;;;;5094596;28;20248;-81
2020/12/18 09:27:54;;;;;;;25.90;9.70;;;;;;;;;;5094721;28;20222;-83
2020/12/18 09:30:21;;;;;;;25.17;9.30;;;;;;;;;;5094527;28;20205;-82
2020/12/18 09:33:06;;;;;;;103.80;10.50;;;;;;;;;;5094422;28;20283;-82
2020/12/18 09:35:32;;;;;;;28.60;10.50;;;;;;;;;;5094212;28;20699;-82
2020/12/18 09:37:58;;;;;;;161.77;12.53;;;;;;;;;;5094620;28;20279;-81
2020/12/18 09:40:24;;;;;;;83.60;12.40;;;;;;;;;;5093320;28;20202;-81
2020/12/18 09:42:50;;;;;;;103.27;11.63;;;;;;;;;;5094548;28;20234;-81
2020/12/18 09:45:16;;;;;;;112.53;10.30;;;;;;;;;;5094034;28;20233;-82
2020/12/18 09:47:42;;;;;;;68.77;11.47;;;;;;;;;;5094681;28;20221;-82
2020/12/18 09:50:09;;;;;;;104.70;9.60;;;;;;;;;;5097842;28;20489;-82
2020/12/18 09:52:35;;;;;;;206.20;13.63;;;;;;;;;;5098046;28;20205;-82
2020/12/18 09:55:01;;;;;;;290.33;19.53;;;;;;;;;;5098169;28;20237;-82
2020/12/18 09:57:27;;;;;;;211.13;22.33;;;;;;;;;;5097990;28;20253;-82
2020/12/18 09:59:54;;;;;;;204.03;15.83;;;;;;;;;;5097859;28;20236;-82
2020/12/18 10:02:20;;;;;;;95.00;11.07;;;;;;;;;;5097508;28;20549;-83
2020/12/18 10:04:46;;;;;;;103.03;12.30;;;;;;;;;;5098008;28;20229;-82
2020/12/18 10:07:13;;;;;;;137.63;10.93;;;;;;;;;;5097761;28;20221;-83
2020/12/18 10:09:39;;;;;;;66.77;10.50;;;;;;;;;;5097993;28;20618;-83
2020/12/18 10:12:05;;;;;;;95.17;10.63;;;;;;;;;;5097678;28;20236;-82
2020/12/18 10:14:31;;;;;;;63.77;9.23;;;;;;;;;;5097548;28;20229;-83
2020/12/18 10:16:57;;;;;;;48.13;7.80;;;;;;;;;;5097311;28;20249;-82
2020/12/18 10:19:23;;;;;;;21.73;8.97;;;;;;;;;;5097561;28;20225;-82
2020/12/18 10:21:49;;;;;;;26.53;8.80;;;;;;;;;;5097546;28;20658;-83
2020/12/18 10:24:16;;;;;;;74.97;9.53;;;;;;;;;;5097558;28;20222;-83
2020/12/18 10:26:42;;;;;;;28.90;9.33;;;;;;;;;;5097346;28;20347;-83
2020/12/18 10:29:08;;;;;;;27.77;9.10;;;;;;;;;;5097556;28;20233;-83
2020/12/18 10:31:34;;;;;;;47.07;10.27;;;;;;;;;;5097564;28;20233;-82
2020/12/18 10:34:03;;;;;;;20.50;8.83;;;;;;;;;;5096898;28;20249;-82
2020/12/18 10:36:29;;;;;;;13.77;8.47;;;;;;;;;;5097344;28;20598;-82
2020/12/18 10:38:55;;;;;;;48.60;9.53;;;;;;;;;;5097229;28;20227;-82
2020/12/18 10:41:22;;;;;;;46.37;8.87;;;;;;;;;;5096005;28;20253;-81
2020/12/18 10:43:48;;;;;;;78.10;11.47;;;;;;;;;;5097308;28;20856;-82
2020/12/18 10:46:14;;;;;;;96.60;11.10;;;;;;;;;;5096361;28;20234;-81
2020/12/18 10:48:40;;;;;;;183.70;14.10;;;;;;;;;;5097285;28;20542;-82
2020/12/18 10:51:06;;;;;;;94.13;13.07;;;;;;;;;;5097063;28;20716;-82
2020/12/18 10:53:32;;;;;;;78.80;13.17;;;;;;;;;;5096788;28;20238;-84
2020/12/18 10:56:00;;;;;;;123.50;11.60;;;;;;;;;;5096639;28;20233;-85
2020/12/18 10:58:27;;;;;;;224.77;13.73;;;;;;;;;;5096360;28;20649;-85
2020/12/18 11:00:53;;;;;;;180.17;12.27;;;;;;;;;;5096365;28;20410;-84
2020/12/18 11:03:19;;;;;;;104.80;12.37;;;;;;;;;;5096497;28;20229;-86
2020/12/18 11:05:45;;;;;;;198.93;16.73;;;;;;;;;;5096725;28;20225;-85
2020/12/18 11:08:11;;;;;;;78.33;14.73;;;;;;;;;;5095532;28;20190;-86
2020/12/18 11:10:38;;;;;;;132.87;13.53;;;;;;;;;;5096329;28;20228;-86
2020/12/18 11:13:04;;;;;;;101.63;14.53;;;;;;;;;;5096712;28;20538;-85
2020/12/18 11:15:31;;;;;;;26.00;11.87;;;;;;;;;;5096434;28;20233;-85
2020/12/18 11:17:57;;;;;;;15.90;11.30;;;;;;;;;;5096597;28;20246;-82
2020/12/18 11:20:23;;;;;;;22.07;11.50;;;;;;;;;;5095779;28;20244;-83
2020/12/18 11:22:49;;;;;;;18.83;11.30;;;;;;;;;;5095789;28;20541;-85
2020/12/18 11:25:15;;;;;;;31.90;11.30;;;;;;;;;;5095994;28;20229;-87
2020/12/18 11:27:41;;;;;;;76.90;18.77;;;;;;;;;;5096372;28;20237;-82
2020/12/18 11:30:07;;;;;;;38.97;13.57;;;;;;;;;;5096096;28;20232;-86
2020/12/18 11:32:34;;;;;;;46.83;12.97;;;;;;;;;;5096092;28;20573;-84
2020/12/18 11:35:00;;;;;;;32.50;12.90;;;;;;;;;;5096052;28;20533;-85
2020/12/18 11:37:27;;;;;;;66.73;13.90;;;;;;;;;;5095869;28;20252;-87
2020/12/18 11:39:53;;;;;;;22.87;12.80;;;;;;;;;;5094792;28;20198;-80
2020/12/18 11:42:20;;;;;;;12.97;11.57;;;;;;;;;;5095889;28;20259;-84
2020/12/18 11:44:46;;;;;;;16.63;12.77;;;;;;;;;;5096026;28;20229;-85
2020/12/18 11:47:13;;;;;;;16.27;11.73;;;;;;;;;;5095830;28;20212;-84
2020/12/18 11:49:39;;;;;;;13.73;11.33;;;;;;;;;;5095922;28;20231;-83
2020/12/18 11:52:06;;;;;;;12.87;11.43;;;;;;;;;;5095700;28;20605;-83
2020/12/18 11:54:32;;;;;;;12.83;11.50;;;;;;;;;;5095870;28;20241;-82
2020/12/18 11:56:58;;;;;;;11.60;10.40;;;;;;;;;;5094309;28;20240;-81
2020/12/18 11:59:24;;;;;;;12.83;11.40;;;;;;;;;;5095556;28;20630;-80
2020/12/18 12:01:50;;;;;;;16.40;12.00;;;;;;;;;;5095016;28;20233;-88
2020/12/18 12:04:16;;;;;;;11.90;10.70;;;;;;;;;;5095300;28;20244;-90
2020/12/18 12:06:43;;;;;;;12.10;10.80;;;;;;;;;;5095225;28;20236;-84
2020/12/18 12:09:10;;;;;;;10.73;9.73;;;;;;;;;;5095542;28;20495;-86
2020/12/18 12:11:36;;;;;;;9.77;8.87;;;;;;;;;;5093576;28;20205;-87
2020/12/18 12:14:02;;;;;;;9.80;8.80;;;;;;;;;;5095617;28;20308;-84
2020/12/18 12:16:31;;;;;;;9.63;8.73;;;;;;;;;;5094913;28;20230;-80
2020/12/18 12:18:57;;;;;;;10.67;9.67;;;;;;;;;;5095629;28;20233;-87
2020/12/18 12:21:23;;;;;;;11.80;9.40;;;;;;;;;;5096019;28;20240;-84
2020/12/18 12:23:50;;;;;;;10.63;9.63;;;;;;;;;;5101035;28;20205;-85
2020/12/18 12:26:16;;;;;;;10.30;8.90;;;;;;;;;;5097719;28;20202;-85
2020/12/18 12:28:42;;;;;;;10.47;9.47;;;;;;;;;;5095673;28;20241;-83
2020/12/18 12:31:09;;;;;;;9.70;8.80;;;;;;;;;;5095332;28;20598;-84
2020/12/18 12:33:35;;;;;;;10.07;8.80;;;;;;;;;;5094544;28;20260;-84
2020/12/18 12:36:01;;;;;;;9.90;8.90;;;;;;;;;;5095204;28;20229;-86
2020/12/18 12:38:27;;;;;;;9.30;8.40;;;;;;;;;;5094461;28;20241;-86
2020/12/18 12:40:54;;;;;;;9.10;8.30;;;;;;;;;;5095215;28;20685;-81
2020/12/18 12:43:20;;;;;;;8.97;8.07;;;;;;;;;;5094871;28;20229;-83
2020/12/18 12:45:46;;;;;;;10.27;9.20;;;;;;;;;;5095012;28;20244;-82
2020/12/18 12:48:12;;;;;;;10.10;7.87;;;;;;;;;;5094814;28;20630;-85
2020/12/18 12:50:38;;;;;;;8.90;8.10;;;;;;;;;;5094780;28;20241;-82
2020/12/18 12:53:04;;;;;;;9.00;8.10;;;;;;;;;;5094655;28;20256;-82
2020/12/18 12:55:30;;;;;;;9.80;8.80;;;;;;;;;;5095088;28;20236;-82
2020/12/18 12:57:57;;;;;;;9.23;8.40;;;;;;;;;;5094429;28;20242;-81
2020/12/18 13:00:23;;;;;;;9.00;8.20;;;;;;;;;;5094973;28;20614;-81
2020/12/18 13:02:49;;;;;;;8.67;7.87;;;;;;;;;;5094081;28;20236;-81
2020/12/18 13:05:16;;;;;;;10.13;8.83;;;;;;;;;;5094148;28;20535;-82
2020/12/18 13:07:42;;;;;;;8.83;8.00;;;;;;;;;;5094165;28;20271;-83
2020/12/18 13:10:08;;;;;;;9.00;8.20;;;;;;;;;;5094438;28;20230;-81
2020/12/18 13:12:34;;;;;;;8.43;7.67;;;;;;;;;;5094006;28;20236;-82
2020/12/18 13:15:01;;;;;;;9.77;8.80;;;;;;;;;;5094558;28;20606;-81
2020/12/18 13:17:27;;;;;;;9.17;8.37;;;;;;;;;;5093762;28;20256;-81
2020/12/18 13:19:54;;;;;;;9.30;8.30;;;;;;;;;;5094664;28;20225;-85
2020/12/18 13:22:21;;;;;;;10.40;9.10;;;;;;;;;;5096126;28;20240;-84
2020/12/18 13:24:47;;;;;;;10.37;9.30;;;;;;;;;;5098514;28;20221;-82
2020/12/18 13:27:14;;;;;;;9.53;8.70;;;;;;;;;;5098661;28;20664;-82
2020/12/18 13:29:40;;;;;;;9.67;8.77;;;;;;;;;;5098566;28;20237;-85
2020/12/18 13:32:07;;;;;;;10.73;8.73;;;;;;;;;;5098302;28;20566;-83
2020/12/18 13:34:34;;;;;;;10.77;9.77;;;;;;;;;;5098348;28;20202;-81
2020/12/18 13:37:03;;;;;;;11.37;9.00;;;;;;;;;;5098085;28;20229;-82
2020/12/18 13:39:29;;;;;;;10.77;9.83;;;;;;;;;;5098254;28;20233;-83
2020/12/18 13:41:56;;;;;;;11.87;10.80;;;;;;;;;;5098349;28;20633;-82
2020/12/18 13:44:22;;;;;;;10.57;9.67;;;;;;;;;;5098346;28;20233;-82
2020/12/18 13:46:48;;;;;;;11.60;10.47;;;;;;;;;;5098158;28;20232;-83
2020/12/18 13:49:15;;;;;;;11.43;10.40;;;;;;;;;;5098090;28;20237;-82
2020/12/18 13:51:46;;;;;;;11.97;10.87;;;;;;;;;;5097940;28;20233;-82
2020/12/18 13:54:12;;;;;;;12.50;10.97;;;;;;;;;;5097942;28;20213;-84
2020/12/18 13:56:43;;;;;;;12.20;11.10;;;;;;;;;;5097899;28;20229;-85
2020/12/18 13:59:09;;;;;;;14.67;11.13;;;;;;;;;;5097505;28;20249;-83
2020/12/18 14:01:36;;;;;;;15.60;12.03;;;;;;;;;;5097914;28;20230;-83
2020/12/18 14:04:03;;;;;;;12.53;11.13;;;;;;;;;;5098053;28;20232;-84
2020/12/18 14:06:30;;;;;;;13.10;11.90;;;;;;;;;;5097778;28;20518;-84
2020/12/18 14:08:56;;;;;;;12.27;11.17;;;;;;;;;;5097839;28;20209;-84
2020/12/18 14:11:22;;;;;;;11.87;10.67;;;;;;;;;;5097805;28;20259;-84
2020/12/18 14:13:48;;;;;;;12.70;11.03;;;;;;;;;;5097617;28;20263;-84
2020/12/18 14:16:14;;;;;;;12.33;10.43;;;;;;;;;;5097462;28;20214;-84
2020/12/18 14:18:40;;;;;;;21.53;12.77;;;;;;;;;;5097552;28;20260;-82
2020/12/18 14:21:08;;;;;;;13.57;12.17;;;;;;;;;;5097693;28;20244;-85
2020/12/18 14:23:35;;;;;;;19.73;12.77;;;;;;;;;;5096999;28;20233;-82
2020/12/18 14:26:01;;;;;;;18.33;13.50;;;;;;;;;;5097357;28;20234;-82